createdAt,value
2022-12-14T00:01:18.245Z,69.81
2022-12-14T00:03:21.778Z,70.10
2022-12-14T00:05:24.884Z,69.48
2022-12-14T00:07:29.785Z,70.24
2022-12-14T00:09:32.855Z,70.18
2022-12-14T00:11:37.120Z,70.27
2022-12-14T00:13:40.993Z,70.61
2022-12-14T00:15:44.014Z,70.52
2022-12-14T00:17:47.083Z,71.15
2022-12-14T00:19:50.099Z,70.73
2022-12-14T00:21:53.265Z,71.09
2022-12-14T00:24:00.033Z,70.62
2022-12-14T00:26:10.384Z,71.10
2022-12-14T00:28:15.011Z,71.19
2022-12-14T00:30:20.415Z,71.61
2022-12-14T00:32:23.429Z,71.10
2022-12-14T00:34:28.615Z,71.18
2022-12-14T00:36:32.105Z,70.81
2022-12-14T00:38:35.388Z,70.70
2022-12-14T00:40:38.341Z,70.52
2022-12-14T00:42:41.376Z,70.85
2022-12-14T00:44:46.548Z,70.89
2022-12-14T00:46:49.583Z,71.24
2022-12-14T00:49:01.619Z,70.75
2022-12-14T00:51:05.004Z,71.29
2022-12-14T00:53:09.707Z,71.34
2022-12-14T00:55:12.762Z,71.56
2022-12-14T00:57:16.244Z,71.15
2022-12-14T00:59:24.220Z,71.18
2022-12-14T01:01:31.707Z,71.16
2022-12-14T01:03:35.633Z,71.37
2022-12-14T01:05:39.080Z,71.80
2022-12-14T01:07:42.123Z,71.61
2022-12-14T01:09:45.129Z,71.43
2022-12-14T01:11:48.857Z,71.96
2022-12-14T01:13:56.528Z,71.50
2022-12-14T01:16:04.493Z,71.99
2022-12-14T01:18:08.924Z,71.46
2022-12-14T01:20:12.913Z,71.04
2022-12-14T01:22:15.854Z,71.36
2022-12-14T01:24:18.892Z,71.08
2022-12-14T01:26:22.168Z,71.05
2022-12-14T01:28:25.137Z,71.52
2022-12-14T01:30:28.159Z,70.70
2022-12-14T01:32:31.240Z,71.21
2022-12-14T01:34:35.576Z,71.81
2022-12-14T01:36:39.328Z,71.51
2022-12-14T01:38:42.661Z,71.38
2022-12-14T01:40:45.605Z,71.55
2022-12-14T01:42:49.909Z,71.58
2022-12-14T01:44:56.665Z,71.55
2022-12-14T01:47:05.095Z,71.38
2022-12-14T01:49:15.236Z,71.79
2022-12-14T01:51:19.766Z,71.34
2022-12-14T01:53:23.517Z,71.98
2022-12-14T01:55:28.976Z,71.41
2022-12-14T01:57:35.298Z,71.70
2022-12-14T01:59:40.653Z,72.21
2022-12-14T02:01:43.976Z,72.01
2022-12-14T02:03:52.967Z,71.96
2022-12-14T02:05:58.329Z,72.08
2022-12-14T02:08:04.265Z,71.99
2022-12-14T02:10:09.132Z,72.66
2022-12-14T02:12:14.505Z,72.19
2022-12-14T02:14:17.462Z,72.66
2022-12-14T02:16:20.514Z,72.92
2022-12-14T02:18:26.912Z,73.08
2022-12-14T02:20:42.701Z,73.53
2022-12-14T02:23:18.815Z,73.38
2022-12-14T02:25:58.109Z,74.04
2022-12-14T02:28:18.393Z,73.75
2022-12-14T02:30:23.510Z,74.51
2022-12-14T02:32:58.897Z,74.42
2022-12-14T02:35:05.216Z,74.69
2022-12-14T02:37:12.537Z,74.66
2022-12-14T02:39:24.015Z,74.88
2022-12-14T02:41:38.241Z,75.19
2022-12-14T02:43:49.125Z,75.84
2022-12-14T02:46:02.785Z,75.77
2022-12-14T02:48:08.697Z,75.97
2022-12-14T02:50:15.730Z,75.71
2022-12-14T02:52:28.361Z,76.05
2022-12-14T02:54:35.799Z,76.36
2022-12-14T02:56:42.690Z,76.69
2022-12-14T02:58:50.509Z,76.28
2022-12-14T03:00:56.287Z,76.66
2022-12-14T03:02:59.846Z,76.20
2022-12-14T03:05:02.913Z,76.50
2022-12-14T03:07:27.022Z,75.96
2022-12-14T03:09:31.318Z,75.90
2022-12-14T03:11:39.066Z,76.29
2022-12-14T03:13:47.501Z,76.14
2022-12-14T03:15:58.368Z,76.26
2022-12-14T03:18:02.709Z,76.55
2022-12-14T03:20:09.342Z,76.18
2022-12-14T03:22:16.113Z,76.17
2022-12-14T03:24:23.167Z,75.98
2022-12-14T03:26:27.827Z,76.58
2022-12-14T03:28:33.793Z,76.99
2022-12-14T03:30:59.540Z,76.91
2022-12-14T03:33:07.028Z,76.91
2022-12-14T03:35:15.746Z,76.76
2022-12-14T03:37:22.810Z,76.88
2022-12-14T03:39:29.077Z,76.83
2022-12-14T03:41:36.802Z,77.33
2022-12-14T03:43:51.193Z,77.58
2022-12-14T03:45:58.988Z,77.54
2022-12-14T03:48:08.107Z,77.39
2022-12-14T03:50:15.988Z,77.16
2022-12-14T03:52:25.732Z,77.89
2022-12-14T03:54:37.348Z,77.52
2022-12-14T03:56:42.977Z,77.02
2022-12-14T03:58:55.495Z,77.66
2022-12-14T04:01:05.511Z,77.89
2022-12-14T04:03:15.561Z,77.22
2022-12-14T04:05:23.023Z,77.30
2022-12-14T04:07:34.603Z,77.24
2022-12-14T04:09:43.876Z,76.83
2022-12-14T04:12:07.774Z,76.85
2022-12-14T04:14:32.197Z,76.46
2022-12-14T04:16:57.574Z,76.88
2022-12-14T04:19:07.712Z,77.21
2022-12-14T04:21:13.403Z,76.50
2022-12-14T04:23:41.285Z,77.24
2022-12-14T04:26:05.181Z,77.01
2022-12-14T04:28:33.200Z,76.17
2022-12-14T04:30:38.701Z,76.86
2022-12-14T04:32:43.608Z,75.77
2022-12-14T04:34:51.981Z,75.70
2022-12-14T04:36:57.251Z,76.28
2022-12-14T04:39:03.211Z,76.16
2022-12-14T04:41:09.254Z,75.94
2022-12-14T04:43:14.808Z,75.72
2022-12-14T04:45:22.120Z,75.48
2022-12-14T04:47:31.310Z,75.37
2022-12-14T04:49:41.028Z,75.97
2022-12-14T04:51:49.024Z,75.11
2022-12-14T04:53:54.172Z,75.76
2022-12-14T04:56:02.205Z,75.57
2022-12-14T04:58:10.344Z,75.86
2022-12-14T05:00:14.009Z,75.18
2022-12-14T05:02:21.844Z,75.40
2022-12-14T05:04:34.445Z,75.66
2022-12-14T05:06:41.915Z,75.28
2022-12-14T05:09:04.160Z,75.51
2022-12-14T05:11:41.352Z,75.29
2022-12-14T05:13:37.795Z,75.31
2022-12-14T05:15:43.381Z,76.00
2022-12-14T05:17:46.434Z,75.91
2022-12-14T05:19:50.945Z,75.27
2022-12-14T05:21:54.089Z,75.16
2022-12-14T05:23:59.194Z,74.65
2022-12-14T05:26:02.153Z,74.61
2022-12-14T05:28:05.621Z,75.21
2022-12-14T05:30:09.849Z,74.95
2022-12-14T05:32:14.037Z,75.25
2022-12-14T05:34:17.099Z,75.12
2022-12-14T05:36:20.605Z,74.83
2022-12-14T05:38:23.584Z,74.62
2022-12-14T05:40:27.935Z,75.59
2022-12-14T05:42:31.352Z,75.39
2022-12-14T05:44:34.305Z,75.91
2022-12-14T05:46:37.379Z,75.77
2022-12-14T05:48:43.662Z,75.19
2022-12-14T05:50:49.188Z,75.33
2022-12-14T05:52:52.646Z,75.98
2022-12-14T05:55:00.908Z,76.04
2022-12-14T05:57:09.623Z,75.91
2022-12-14T05:59:16.193Z,75.22
2022-12-14T06:01:20.614Z,75.31
2022-12-14T06:03:26.893Z,75.89
2022-12-14T06:05:32.001Z,75.22
2022-12-14T06:07:35.619Z,75.68
2022-12-14T06:09:40.145Z,75.29
2022-12-14T06:11:44.546Z,75.33
2022-12-14T06:13:52.602Z,75.54
2022-12-14T06:15:56.394Z,75.00
2022-12-14T06:18:00.828Z,75.38
2022-12-14T06:20:05.129Z,75.37
2022-12-14T06:22:08.448Z,74.99
2022-12-14T06:24:13.483Z,75.24
2022-12-14T06:26:18.757Z,75.51
2022-12-14T06:28:22.316Z,75.50
2022-12-14T06:30:27.306Z,75.67
2022-12-14T06:32:31.222Z,75.16
2022-12-14T06:34:39.825Z,75.70
2022-12-14T06:36:44.510Z,75.25
2022-12-14T06:38:53.614Z,75.32
2022-12-14T06:40:56.734Z,75.32
2022-12-14T06:43:00.548Z,75.11
2022-12-14T06:45:04.039Z,75.53
2022-12-14T06:47:08.597Z,75.10
2022-12-14T06:49:14.358Z,75.45
2022-12-14T06:51:17.506Z,75.82
2022-12-14T06:53:20.538Z,75.67
2022-12-14T06:55:23.883Z,75.93
2022-12-14T06:57:29.455Z,75.77
2022-12-14T06:59:32.678Z,75.51
2022-12-14T07:01:38.328Z,75.89
2022-12-14T07:03:46.008Z,75.42
2022-12-14T07:05:50.027Z,75.74
2022-12-14T07:07:53.306Z,76.14
2022-12-14T07:10:08.268Z,75.90
2022-12-14T07:12:14.419Z,75.87
2022-12-14T07:14:18.028Z,75.70
2022-12-14T07:16:23.902Z,76.40
2022-12-14T07:18:51.620Z,76.44
2022-12-14T07:20:58.785Z,76.07
2022-12-14T07:23:03.253Z,76.61
2022-12-14T07:25:08.185Z,76.84
2022-12-14T07:27:12.481Z,77.21
2022-12-14T07:29:17.126Z,76.71
2022-12-14T07:31:40.840Z,77.16
2022-12-14T07:33:45.890Z,76.92
2022-12-14T07:35:51.609Z,77.01
2022-12-14T07:37:54.730Z,77.52
2022-12-14T07:39:57.921Z,78.03
2022-12-14T07:42:02.105Z,78.66
2022-12-14T07:44:06.476Z,78.42
2022-12-14T07:46:12.116Z,78.57
2022-12-14T07:48:22.481Z,78.78
2022-12-14T07:50:27.446Z,79.53
2022-12-14T07:52:37.396Z,79.58
2022-12-14T07:54:43.441Z,78.82
2022-12-14T07:56:49.788Z,78.95
2022-12-14T07:58:54.206Z,78.75
2022-12-14T08:00:57.733Z,78.85
2022-12-14T08:03:02.360Z,78.88
2022-12-14T08:05:10.715Z,79.09
2022-12-14T08:07:15.720Z,79.16
2022-12-14T08:09:21.928Z,79.27
2022-12-14T08:11:25.806Z,79.32
2022-12-14T08:13:31.364Z,79.04
2022-12-14T08:15:38.705Z,79.17
2022-12-14T08:17:52.403Z,78.07
2022-12-14T08:19:56.745Z,78.09
2022-12-14T08:22:01.076Z,78.24
2022-12-14T08:24:05.345Z,78.40
2022-12-14T08:26:09.963Z,78.44
2022-12-14T08:28:12.960Z,78.43
2022-12-14T08:30:16.586Z,78.46
2022-12-14T08:32:20.452Z,78.28
2022-12-14T08:34:24.019Z,78.08
2022-12-14T08:36:29.188Z,77.70
2022-12-14T08:38:32.352Z,77.94
2022-12-14T08:40:36.184Z,77.62
2022-12-14T08:42:40.729Z,78.15
2022-12-14T08:44:43.772Z,77.98
2022-12-14T08:46:47.036Z,78.21
2022-12-14T08:48:55.077Z,78.16
2022-12-14T08:51:03.019Z,77.81
2022-12-14T08:53:06.385Z,78.08
2022-12-14T08:55:11.163Z,78.20
2022-12-14T08:57:15.132Z,79.11
2022-12-14T08:59:52.129Z,78.60
2022-12-14T09:01:45.717Z,78.97
2022-12-14T09:03:49.801Z,79.28
2022-12-14T09:05:54.200Z,79.01
2022-12-14T09:07:57.418Z,79.22
2022-12-14T09:10:00.466Z,79.26
2022-12-14T09:12:06.580Z,79.67
2022-12-14T09:14:10.070Z,79.85
2022-12-14T09:16:17.589Z,79.91
2022-12-14T09:18:21.118Z,80.18
2022-12-14T09:20:24.328Z,80.74
2022-12-14T09:22:27.504Z,80.61
2022-12-14T09:24:31.379Z,81.05
2022-12-14T09:26:34.901Z,81.16
2022-12-14T09:28:40.611Z,81.64
2022-12-14T09:30:46.251Z,81.73
2022-12-14T09:32:51.762Z,82.79
2022-12-14T09:34:57.201Z,82.75
2022-12-14T09:37:05.315Z,82.60
2022-12-14T09:39:08.353Z,83.46
2022-12-14T09:41:24.522Z,83.87
2022-12-14T09:43:37.947Z,83.79
2022-12-14T09:45:49.682Z,83.91
2022-12-14T09:47:58.415Z,84.16
2022-12-14T09:50:05.062Z,83.82
2022-12-14T09:52:15.975Z,84.50
2022-12-14T09:54:24.614Z,84.74
2022-12-14T09:56:29.784Z,84.87
2022-12-14T09:58:34.871Z,84.84
2022-12-14T10:00:51.437Z,85.20
2022-12-14T10:03:16.267Z,85.70
2022-12-14T10:05:29.123Z,86.22
2022-12-14T10:07:37.655Z,86.11
2022-12-14T10:09:44.641Z,86.56
2022-12-14T10:11:53.585Z,86.81
2022-12-14T10:14:09.907Z,86.34
2022-12-14T10:16:21.000Z,86.93
2022-12-14T10:18:59.107Z,86.79
2022-12-14T10:21:06.457Z,87.41
2022-12-14T10:23:16.939Z,87.73
2022-12-14T10:25:28.568Z,87.90
2022-12-14T10:27:48.034Z,87.65
2022-12-14T10:29:59.457Z,88.08
2022-12-14T10:32:12.805Z,87.95
2022-12-14T10:34:22.954Z,87.91
2022-12-14T10:36:31.841Z,87.69
2022-12-14T10:38:42.228Z,87.94
2022-12-14T10:40:49.748Z,88.13
2022-12-14T10:43:01.093Z,88.00
2022-12-14T10:45:39.805Z,87.82
2022-12-14T10:47:40.132Z,88.04
2022-12-14T10:49:50.208Z,88.07
2022-12-14T10:51:56.325Z,88.46
2022-12-14T10:54:04.342Z,88.17
2022-12-14T10:56:12.508Z,87.89
2022-12-14T10:58:15.561Z,87.93
2022-12-14T11:00:23.481Z,87.74
2022-12-14T11:02:29.640Z,87.47
2022-12-14T11:04:35.860Z,87.42
2022-12-14T11:06:40.367Z,87.36
2022-12-14T11:08:48.031Z,86.82
2022-12-14T11:11:11.561Z,87.02
2022-12-14T11:13:18.567Z,87.33
2022-12-14T11:15:25.272Z,86.32
2022-12-14T11:17:34.343Z,87.04
2022-12-14T11:19:37.510Z,87.42
2022-12-14T11:21:42.033Z,87.85
2022-12-14T11:23:46.163Z,87.40
2022-12-14T11:25:50.920Z,88.10
2022-12-14T11:27:54.109Z,88.63
2022-12-14T11:29:57.479Z,88.39
2022-12-14T11:32:01.374Z,87.63
2022-12-14T11:34:05.935Z,87.93
2022-12-14T11:36:10.052Z,87.25
2022-12-14T11:38:16.209Z,86.67
2022-12-14T11:40:21.358Z,86.83
2022-12-14T11:42:24.915Z,86.82
2022-12-14T11:44:30.074Z,86.15
2022-12-14T11:46:52.630Z,86.98
2022-12-14T11:48:58.076Z,86.82
2022-12-14T11:51:10.894Z,87.46
2022-12-14T11:53:17.444Z,87.58
2022-12-14T11:55:26.861Z,87.47
2022-12-14T11:57:32.597Z,87.44
2022-12-14T11:59:39.808Z,87.07
2022-12-14T12:01:43.150Z,86.77
2022-12-14T12:03:47.424Z,86.57
2022-12-14T12:05:50.925Z,86.70
2022-12-14T12:07:56.560Z,86.75
2022-12-14T12:10:16.733Z,87.07
2022-12-14T12:12:22.091Z,87.44
2022-12-14T12:14:30.607Z,87.93
2022-12-14T12:16:35.561Z,87.61
2022-12-14T12:18:46.449Z,87.26
2022-12-14T12:20:53.435Z,87.27
2022-12-14T12:23:00.542Z,87.11
2022-12-14T12:25:29.598Z,86.40
2022-12-14T12:27:34.860Z,87.06
2022-12-14T12:29:40.683Z,87.00
2022-12-14T12:31:48.375Z,86.80
2022-12-14T12:33:54.668Z,86.89
2022-12-14T12:36:02.658Z,86.99
2022-12-14T12:38:10.662Z,86.22
2022-12-14T12:40:20.901Z,86.75
2022-12-14T12:42:30.481Z,86.60
2022-12-14T12:44:41.916Z,86.85
2022-12-14T12:47:22.977Z,86.50
2022-12-14T12:49:18.505Z,87.04
2022-12-14T12:51:24.476Z,87.30
2022-12-14T12:53:33.066Z,87.46
2022-12-14T12:55:42.755Z,87.42
2022-12-14T12:57:49.247Z,85.85
2022-12-14T12:59:54.836Z,86.24
2022-12-14T13:02:00.962Z,86.65
2022-12-14T13:04:06.584Z,87.05
2022-12-14T13:06:16.322Z,87.01
2022-12-14T13:08:24.658Z,86.92
2022-12-14T13:10:31.693Z,86.53
2022-12-14T13:12:38.335Z,86.99
2022-12-14T13:14:43.631Z,87.01
2022-12-14T13:16:59.947Z,87.11
2022-12-14T13:19:40.460Z,86.78
2022-12-14T13:21:35.200Z,87.03
2022-12-14T13:23:46.322Z,87.13
2022-12-14T13:25:56.132Z,87.18
2022-12-14T13:28:17.146Z,87.10
2022-12-14T13:30:30.410Z,87.12
2022-12-14T13:32:45.354Z,86.78
2022-12-14T13:34:55.550Z,87.04
2022-12-14T13:37:11.847Z,87.27
2022-12-14T13:40:07.131Z,87.61
2022-12-14T13:42:17.755Z,87.61
2022-12-14T13:44:44.113Z,87.79
2022-12-14T13:46:47.635Z,87.77
2022-12-14T13:48:53.142Z,88.18
2022-12-14T13:51:01.941Z,88.73
2022-12-14T13:53:10.511Z,88.60
2022-12-14T13:55:29.368Z,88.20
2022-12-14T13:57:32.862Z,88.42
2022-12-14T13:59:42.352Z,88.82
2022-12-14T14:01:57.793Z,88.95
2022-12-14T14:04:22.774Z,88.45
2022-12-14T14:06:38.499Z,89.23
2022-12-14T14:08:46.337Z,89.29
2022-12-14T14:10:54.172Z,89.21
2022-12-14T14:14:05.133Z,89.42
2022-12-14T14:16:30.558Z,89.78
2022-12-14T14:18:36.450Z,89.67
2022-12-14T14:20:42.226Z,90.52
2022-12-14T14:23:23.603Z,89.71
2022-12-14T14:25:40.826Z,89.73
2022-12-14T14:27:50.813Z,89.89
2022-12-14T14:29:55.902Z,89.60
2022-12-14T14:32:02.695Z,89.31
2022-12-14T14:34:06.472Z,89.68
2022-12-14T14:36:11.864Z,89.82
2022-12-14T14:38:25.343Z,89.05
2022-12-14T14:41:06.343Z,89.05
2022-12-14T14:43:00.316Z,89.01
2022-12-14T14:45:05.858Z,89.66
2022-12-14T14:47:27.695Z,88.84
2022-12-14T14:49:40.967Z,89.59
2022-12-14T14:51:43.995Z,88.79
2022-12-14T14:53:50.597Z,89.23
2022-12-14T14:56:03.539Z,88.88
2022-12-14T14:58:29.196Z,88.79
2022-12-14T15:00:40.929Z,88.65
2022-12-14T15:02:45.959Z,89.10
2022-12-14T15:04:51.635Z,88.87
2022-12-14T15:06:58.533Z,88.85
2022-12-14T15:09:06.304Z,88.90
2022-12-14T15:11:16.529Z,88.69
2022-12-14T15:13:22.524Z,89.07
2022-12-14T15:15:34.500Z,88.64
2022-12-14T15:17:37.859Z,88.95
2022-12-14T15:19:47.971Z,88.79
2022-12-14T15:21:52.694Z,88.88
2022-12-14T15:23:57.220Z,89.12
2022-12-14T15:26:02.112Z,88.65
2022-12-14T15:28:07.564Z,88.97
2022-12-14T15:30:20.947Z,88.81
2022-12-14T15:32:25.323Z,88.72
2022-12-14T15:34:30.372Z,89.15
2022-12-14T15:36:37.454Z,88.97
2022-12-14T15:38:40.546Z,88.80
2022-12-14T15:40:55.030Z,88.94
2022-12-14T15:43:00.009Z,88.85
2022-12-14T15:45:10.159Z,88.78
2022-12-14T15:47:27.597Z,88.82
2022-12-14T15:49:30.764Z,89.19
2022-12-14T15:51:37.759Z,88.62
2022-12-14T15:53:42.433Z,88.20
2022-12-14T15:55:53.516Z,88.75
2022-12-14T15:58:07.723Z,88.31
2022-12-14T16:00:13.437Z,88.80
2022-12-14T16:02:22.913Z,88.52
2022-12-14T16:04:29.161Z,88.45
2022-12-14T16:06:33.622Z,88.33
2022-12-14T16:08:39.795Z,88.26
2022-12-14T16:10:43.846Z,88.83
2022-12-14T16:12:48.688Z,88.79
2022-12-14T16:14:54.303Z,88.97
2022-12-14T16:16:57.751Z,89.21
2022-12-14T16:19:25.306Z,89.41
2022-12-14T16:21:29.824Z,88.89
2022-12-14T16:23:34.786Z,89.23
2022-12-14T16:25:52.075Z,89.06
2022-12-14T16:27:55.726Z,88.80
2022-12-14T16:30:17.638Z,88.95
2022-12-14T16:32:21.943Z,88.67
2022-12-14T16:34:27.433Z,88.78
2022-12-14T16:36:31.285Z,88.73
2022-12-14T16:38:39.210Z,88.74
2022-12-14T16:40:57.339Z,88.64
2022-12-14T16:43:00.460Z,88.38
2022-12-14T16:45:03.781Z,88.33
2022-12-14T16:47:26.810Z,88.54
2022-12-14T16:49:33.144Z,88.89
2022-12-14T16:54:06.449Z,88.60
2022-12-14T16:56:17.147Z,88.57
2022-12-14T16:58:20.239Z,88.96
2022-12-14T17:00:29.511Z,89.12
2022-12-14T17:02:35.675Z,88.83
2022-12-14T17:04:39.204Z,89.27
2022-12-14T17:06:46.931Z,88.77
2022-12-14T17:08:49.915Z,89.00
2022-12-14T17:10:53.025Z,88.83
2022-12-14T17:12:59.043Z,89.02
2022-12-14T17:15:02.148Z,88.83
2022-12-14T17:17:05.669Z,89.03
2022-12-14T17:19:09.135Z,88.83
2022-12-14T17:21:18.489Z,88.57
2022-12-14T17:23:21.708Z,88.56
2022-12-14T17:25:25.289Z,88.14
2022-12-14T17:27:28.471Z,88.23
2022-12-14T17:29:34.223Z,88.35
2022-12-14T17:31:39.888Z,87.96
2022-12-14T17:33:46.299Z,88.16
2022-12-14T17:35:49.521Z,88.18
2022-12-14T17:37:55.246Z,88.31
2022-12-14T17:39:59.683Z,88.15
2022-12-14T17:42:02.751Z,88.32
2022-12-14T17:44:06.148Z,88.04
2022-12-14T17:46:10.654Z,88.40
2022-12-14T17:48:14.453Z,88.51
2022-12-14T17:50:19.054Z,88.09
2022-12-14T17:52:24.908Z,88.24
2022-12-14T17:54:29.283Z,88.40
2022-12-14T17:56:32.437Z,88.18
2022-12-14T17:58:35.519Z,88.42
2022-12-14T18:00:56.849Z,88.39
2022-12-14T18:03:05.072Z,87.97
2022-12-14T18:05:15.611Z,88.12
2022-12-14T18:07:18.710Z,88.41
2022-12-14T18:09:21.870Z,88.42
2022-12-14T18:11:26.848Z,88.11
2022-12-14T18:13:32.312Z,87.97
2022-12-14T18:15:38.898Z,88.39
2022-12-14T18:17:41.973Z,88.21
2022-12-14T18:19:47.903Z,88.25
2022-12-14T18:21:54.925Z,87.86
2022-12-14T18:24:11.989Z,88.11
2022-12-14T18:26:19.755Z,88.12
2022-12-14T18:28:23.418Z,88.27
2022-12-14T18:30:27.243Z,88.10
2022-12-14T18:32:30.378Z,87.81
2022-12-14T18:34:33.472Z,87.88
2022-12-14T18:36:37.981Z,87.86
2022-12-14T18:38:50.036Z,88.00
2022-12-14T18:40:54.942Z,87.74
2022-12-14T18:42:58.262Z,87.46
2022-12-14T18:45:03.512Z,87.09
2022-12-14T18:47:33.690Z,87.41
2022-12-14T18:49:29.885Z,86.78
2022-12-14T18:51:32.970Z,86.90
2022-12-14T18:53:37.838Z,87.06
2022-12-14T18:55:41.990Z,86.78
2022-12-14T18:57:45.501Z,86.71
2022-12-14T18:59:48.528Z,86.49
2022-12-14T19:01:51.810Z,87.05
2022-12-14T19:03:55.171Z,86.95
2022-12-14T19:06:34.750Z,86.85
2022-12-14T19:08:28.790Z,86.64
2022-12-14T19:10:33.478Z,87.20
2022-12-14T19:12:36.569Z,86.73
2022-12-14T19:14:40.303Z,86.81
2022-12-14T19:16:43.385Z,87.27
2022-12-14T19:18:46.478Z,87.01
2022-12-14T19:20:49.959Z,86.93
2022-12-14T19:22:53.178Z,86.62
2022-12-14T19:24:56.942Z,86.70
2022-12-14T19:27:02.158Z,87.17
2022-12-14T19:29:06.294Z,86.96
2022-12-14T19:31:11.549Z,86.78
2022-12-14T19:33:15.094Z,86.93
2022-12-14T19:35:19.003Z,86.88
2022-12-14T19:37:23.015Z,86.63
2022-12-14T19:39:26.461Z,86.47
2022-12-14T19:41:29.467Z,86.33
2022-12-14T19:43:34.946Z,86.29
2022-12-14T19:45:39.597Z,86.40
2022-12-14T19:47:44.037Z,86.91
2022-12-14T19:49:47.052Z,86.33
2022-12-14T19:51:50.054Z,86.24
2022-12-14T19:53:53.729Z,87.23
2022-12-14T19:55:56.950Z,86.84
2022-12-14T19:58:00.023Z,87.10
2022-12-14T20:00:05.564Z,87.11
2022-12-14T20:02:16.855Z,87.33
2022-12-14T20:04:20.173Z,87.16
2022-12-14T20:06:23.297Z,87.04
2022-12-14T20:08:49.292Z,87.83
2022-12-14T20:10:53.711Z,87.54
2022-12-14T20:12:56.755Z,87.69
2022-12-14T20:15:00.089Z,87.99
2022-12-14T20:17:04.579Z,88.03
2022-12-14T20:19:08.280Z,87.62
2022-12-14T20:21:17.195Z,87.82
2022-12-14T20:23:25.006Z,87.92
2022-12-14T20:25:28.070Z,88.20
2022-12-14T20:27:34.832Z,88.04
2022-12-14T20:29:42.064Z,87.78
2022-12-14T20:31:45.267Z,87.59
2022-12-14T20:33:50.534Z,87.16
2022-12-14T20:35:54.067Z,87.34
2022-12-14T20:37:57.161Z,87.39
2022-12-14T20:40:00.151Z,87.80
2022-12-14T20:42:03.267Z,87.51
2022-12-14T20:44:09.283Z,87.89
2022-12-14T20:46:33.877Z,87.71
2022-12-14T20:48:37.146Z,87.88
2022-12-14T20:50:43.337Z,87.94
2022-12-14T20:52:46.438Z,87.63
2022-12-14T20:54:52.272Z,87.86
2022-12-14T20:56:56.308Z,87.96
2022-12-14T20:58:59.390Z,87.80
2022-12-14T21:01:07.083Z,88.45
2022-12-14T21:03:11.248Z,88.00
2022-12-14T21:05:14.624Z,87.62
2022-12-14T21:07:24.261Z,87.46
2022-12-14T21:09:28.985Z,87.65
2022-12-14T21:11:50.331Z,87.74
2022-12-14T21:13:53.528Z,87.45
2022-12-14T21:15:56.742Z,87.14
2022-12-14T21:17:59.945Z,87.08
2022-12-14T21:20:03.517Z,87.12
2022-12-14T21:22:08.239Z,87.00
2022-12-14T21:24:31.112Z,87.11
2022-12-14T21:26:37.892Z,86.52
2022-12-14T21:28:41.001Z,86.59
2022-12-14T21:30:44.062Z,86.27
2022-12-14T21:32:47.134Z,86.29
2022-12-14T21:34:52.734Z,86.63
2022-12-14T21:36:55.885Z,86.49
2022-12-14T21:38:58.945Z,86.30
2022-12-14T21:41:24.641Z,86.13
2022-12-14T21:43:28.002Z,86.28
2022-12-14T21:45:31.388Z,86.43
2022-12-14T21:47:34.916Z,86.38
2022-12-14T21:49:38.699Z,86.17
2022-12-14T21:51:41.906Z,86.62
2022-12-14T21:53:58.713Z,86.38
2022-12-14T21:56:21.952Z,86.65
2022-12-14T21:58:25.394Z,86.45
2022-12-14T22:00:28.549Z,86.78
2022-12-14T22:02:32.123Z,86.64
2022-12-14T22:04:39.709Z,86.87
2022-12-14T22:06:43.171Z,86.43
2022-12-14T22:08:46.354Z,86.66
2022-12-14T22:10:49.410Z,86.59
2022-12-14T22:12:52.490Z,86.59
2022-12-14T22:14:56.942Z,86.80
2022-12-14T22:17:00.160Z,86.62
2022-12-14T22:19:03.305Z,86.57
2022-12-14T22:21:07.499Z,86.80
2022-12-14T22:23:10.816Z,86.74
2022-12-14T22:25:13.862Z,86.76
2022-12-14T22:27:16.929Z,87.10
2022-12-14T22:29:22.008Z,87.41
2022-12-14T22:31:26.911Z,87.57
2022-12-14T22:33:31.280Z,87.12
2022-12-14T22:35:34.668Z,87.21
2022-12-14T22:37:37.751Z,87.29
2022-12-14T22:39:40.720Z,87.11
2022-12-14T22:41:43.915Z,87.51
2022-12-14T22:43:56.388Z,87.27
2022-12-14T22:46:01.532Z,87.57
2022-12-14T22:48:06.328Z,87.48
2022-12-14T22:50:10.272Z,87.52
2022-12-14T22:52:13.298Z,87.50
2022-12-14T22:54:19.101Z,87.89
2022-12-14T22:56:24.050Z,87.60
2022-12-14T22:58:28.519Z,87.04
2022-12-14T23:00:31.537Z,87.31
2022-12-14T23:02:35.103Z,87.59
2022-12-14T23:04:39.960Z,87.81
2022-12-14T23:06:43.164Z,87.77
2022-12-14T23:09:05.245Z,88.02
2022-12-14T23:11:26.458Z,88.01
2022-12-14T23:13:47.029Z,88.13
2022-12-14T23:16:07.939Z,88.13
2022-12-14T23:18:28.540Z,87.95
2022-12-14T23:20:50.827Z,87.54
2022-12-14T23:23:11.115Z,87.98
2022-12-14T23:25:31.524Z,87.73
2022-12-14T23:27:53.167Z,87.90
2022-12-14T23:30:13.811Z,87.85
2022-12-14T23:32:35.085Z,87.89
2022-12-14T23:34:55.642Z,88.06
2022-12-14T23:37:20.530Z,88.41
2022-12-14T23:39:41.254Z,88.24
2022-12-14T23:42:01.720Z,88.10
2022-12-14T23:44:22.272Z,88.07
2022-12-14T23:46:42.951Z,87.94
2022-12-14T23:49:03.386Z,88.29
2022-12-14T23:51:25.297Z,87.97
2022-12-14T23:53:49.919Z,88.33
2022-12-14T23:56:10.806Z,88.15
2022-12-14T23:58:31.138Z,88.49
